createdAt,value
2023-03-28T00:00:07.216Z,100.00
2023-03-28T00:02:40.488Z,100.00
2023-03-28T00:05:09.749Z,100.00
2023-03-28T00:07:38.470Z,100.00
2023-03-28T00:10:10.113Z,100.00
2023-03-28T00:12:38.434Z,100.00
2023-03-28T00:15:08.030Z,100.00
2023-03-28T00:17:36.371Z,100.00
2023-03-28T00:20:10.500Z,100.00
2023-03-28T00:22:39.128Z,100.00
2023-03-28T00:25:13.378Z,100.00
2023-03-28T00:27:41.896Z,100.00
2023-03-28T00:30:11.275Z,100.00
2023-03-28T00:32:39.469Z,100.00
2023-03-28T00:35:09.917Z,100.00
2023-03-28T00:37:38.821Z,100.00
2023-03-28T00:40:08.878Z,100.00
2023-03-28T00:42:42.511Z,100.00
2023-03-28T00:45:13.881Z,100.00
2023-03-28T00:47:46.047Z,100.00
2023-03-28T00:50:20.133Z,100.00
2023-03-28T00:52:54.378Z,100.00
2023-03-28T00:55:27.702Z,100.00
2023-03-28T00:57:57.857Z,100.00
2023-03-28T01:00:27.630Z,100.00
2023-03-28T01:03:01.794Z,100.00
2023-03-28T01:05:34.068Z,100.00
2023-03-28T01:08:08.487Z,100.00
2023-03-28T01:10:37.701Z,100.00
2023-03-28T01:13:14.762Z,100.00
2023-03-28T01:15:49.826Z,100.00
2023-03-28T01:18:22.901Z,100.00
2023-03-28T01:21:26.145Z,100.00
2023-03-28T01:24:21.299Z,100.00
2023-03-28T01:26:54.305Z,100.00
2023-03-28T01:30:07.942Z,100.00
2023-03-28T01:33:25.494Z,100.00
2023-03-28T01:36:43.257Z,100.00
2023-03-28T01:39:19.346Z,100.00
2023-03-28T01:41:58.154Z,100.00
2023-03-28T01:44:34.480Z,100.00
2023-03-28T01:47:08.821Z,100.00
2023-03-28T01:49:44.394Z,100.00
2023-03-28T01:52:20.413Z,100.00
2023-03-28T01:54:56.124Z,100.00
2023-03-28T01:57:27.810Z,100.00
2023-03-28T02:00:13.654Z,100.00
2023-03-28T02:03:14.654Z,100.00
2023-03-28T02:06:10.246Z,100.00
2023-03-28T02:08:43.908Z,100.00
2023-03-28T02:11:27.540Z,100.00
2023-03-28T02:14:17.950Z,100.00
2023-03-28T02:17:04.849Z,100.00
2023-03-28T02:19:58.517Z,100.00
2023-03-28T02:22:49.148Z,100.00
2023-03-28T02:25:40.080Z,100.00
2023-03-28T02:28:38.552Z,100.00
2023-03-28T02:31:32.918Z,100.00
2023-03-28T02:34:01.640Z,100.00
2023-03-28T02:36:41.111Z,100.00
2023-03-28T02:39:35.305Z,100.00
2023-03-28T02:42:29.837Z,100.00
2023-03-28T02:45:25.776Z,100.00
2023-03-28T02:48:07.873Z,100.00
2023-03-28T02:50:39.279Z,100.00
2023-03-28T02:53:14.385Z,100.00
2023-03-28T02:55:55.107Z,100.00
2023-03-28T02:58:49.780Z,100.00
2023-03-28T03:01:18.257Z,100.00
2023-03-28T03:03:48.564Z,100.00
2023-03-28T03:06:17.918Z,100.00
2023-03-28T03:08:46.407Z,100.00
2023-03-28T03:11:14.812Z,100.00
2023-03-28T03:13:44.471Z,100.00
2023-03-28T03:16:13.472Z,100.00
2023-03-28T03:18:42.099Z,100.00
2023-03-28T03:21:10.534Z,100.00
2023-03-28T03:23:43.973Z,100.00
2023-03-28T03:26:12.608Z,100.00
2023-03-28T03:28:55.373Z,100.00
2023-03-28T03:31:27.567Z,100.00
2023-03-28T03:34:14.639Z,100.00
2023-03-28T03:36:49.965Z,100.00
2023-03-28T03:39:18.697Z,100.00
2023-03-28T03:41:47.406Z,100.00
2023-03-28T03:44:20.179Z,100.00
2023-03-28T03:46:48.418Z,100.00
2023-03-28T03:49:16.705Z,100.00
2023-03-28T03:51:47.062Z,100.00
2023-03-28T03:54:18.368Z,100.00
2023-03-28T03:56:48.758Z,100.00
2023-03-28T03:59:19.738Z,100.00
2023-03-28T04:01:50.323Z,100.00
2023-03-28T04:04:41.495Z,100.00
2023-03-28T04:07:18.922Z,100.00
2023-03-28T04:09:49.525Z,100.00
2023-03-28T04:12:18.585Z,100.00
2023-03-28T04:14:53.732Z,100.00
2023-03-28T04:17:50.269Z,100.00
2023-03-28T04:20:21.405Z,100.00
2023-03-28T04:23:05.834Z,100.00
2023-03-28T04:25:34.766Z,100.00
2023-03-28T04:28:11.048Z,100.00
2023-03-28T04:30:49.372Z,100.00
2023-03-28T04:33:47.086Z,100.00
2023-03-28T04:36:19.079Z,100.00
2023-03-28T04:38:58.511Z,100.00
2023-03-28T04:41:48.975Z,100.00
2023-03-28T04:44:30.362Z,100.00
2023-03-28T04:47:08.529Z,100.00
2023-03-28T04:49:37.226Z,100.00
2023-03-28T04:52:05.812Z,100.00
2023-03-28T04:54:34.703Z,100.00
2023-03-28T04:57:08.304Z,100.00
2023-03-28T04:59:44.047Z,100.00
2023-03-28T05:02:19.936Z,100.00
2023-03-28T05:05:09.471Z,100.00
2023-03-28T05:07:38.196Z,100.00
2023-03-28T05:10:08.546Z,100.00
2023-03-28T05:12:41.334Z,100.00
2023-03-28T05:15:10.416Z,100.00
2023-03-28T05:17:53.801Z,100.00
2023-03-28T05:20:32.581Z,100.00
2023-03-28T05:23:01.598Z,100.00
2023-03-28T05:25:30.445Z,100.00
2023-03-28T05:27:59.439Z,100.00
2023-03-28T05:30:29.374Z,100.00
2023-03-28T05:33:02.421Z,100.00
2023-03-28T05:35:31.437Z,100.00
2023-03-28T05:38:01.148Z,100.00
2023-03-28T05:40:29.760Z,100.00
2023-03-28T05:42:58.409Z,100.00
2023-03-28T05:45:26.857Z,100.00
2023-03-28T05:48:17.503Z,100.00
2023-03-28T05:50:45.985Z,100.00
2023-03-28T05:53:14.255Z,100.00
2023-03-28T05:55:43.085Z,100.00
2023-03-28T05:58:12.836Z,100.00
2023-03-28T06:00:44.633Z,100.00
2023-03-28T06:03:20.288Z,100.00
2023-03-28T06:05:49.294Z,100.00
2023-03-28T06:08:23.148Z,100.00
2023-03-28T06:10:51.991Z,100.00
2023-03-28T06:13:33.163Z,100.00
2023-03-28T06:16:01.563Z,100.00
2023-03-28T06:18:37.272Z,100.00
2023-03-28T06:21:06.177Z,100.00
2023-03-28T06:23:38.140Z,100.00
2023-03-28T06:26:07.227Z,100.00
2023-03-28T06:28:42.464Z,100.00
2023-03-28T06:31:19.795Z,100.00
2023-03-28T06:33:49.838Z,100.00
2023-03-28T06:36:22.747Z,100.00
2023-03-28T06:38:52.348Z,100.00
2023-03-28T06:41:21.928Z,100.00
2023-03-28T06:43:50.531Z,100.00
2023-03-28T06:46:37.647Z,100.00
2023-03-28T06:49:07.916Z,100.00
2023-03-28T06:51:55.614Z,100.00
2023-03-28T06:54:24.393Z,100.00
2023-03-28T06:56:52.717Z,100.00
2023-03-28T06:59:21.267Z,100.00
2023-03-28T07:01:55.914Z,100.00
2023-03-28T07:04:32.819Z,100.00
2023-03-28T07:07:01.819Z,100.00
2023-03-28T07:09:30.603Z,100.00
2023-03-28T07:12:06.668Z,100.00
2023-03-28T07:14:35.322Z,100.00
2023-03-28T07:17:03.950Z,100.00
2023-03-28T07:19:35.191Z,100.00
2023-03-28T07:22:03.675Z,100.00
2023-03-28T07:24:32.252Z,100.00
2023-03-28T07:27:15.350Z,100.00
2023-03-28T07:29:47.502Z,100.00
2023-03-28T07:32:17.346Z,100.00
2023-03-28T07:34:48.607Z,100.00
2023-03-28T07:37:24.568Z,100.00
2023-03-28T07:39:58.903Z,100.00
2023-03-28T07:42:29.139Z,100.00
2023-03-28T07:44:57.722Z,100.00
2023-03-28T07:47:26.433Z,100.00
2023-03-28T07:49:57.388Z,100.00
2023-03-28T07:52:27.319Z,100.00
2023-03-28T07:54:56.208Z,100.00
2023-03-28T07:57:24.490Z,100.00
2023-03-28T08:00:15.813Z,100.00
2023-03-28T08:02:58.453Z,100.00
2023-03-28T08:05:29.087Z,100.00
2023-03-28T08:07:58.518Z,100.00
2023-03-28T08:10:27.166Z,100.00
2023-03-28T08:12:55.749Z,100.00
2023-03-28T08:15:25.019Z,100.00
2023-03-28T08:17:53.457Z,100.00
2023-03-28T08:20:22.488Z,100.00
2023-03-28T08:23:04.619Z,100.00
2023-03-28T08:25:44.997Z,100.00
2023-03-28T08:28:16.112Z,100.00
2023-03-28T08:30:45.296Z,100.00
2023-03-28T08:33:14.422Z,100.00
2023-03-28T08:35:43.101Z,100.00
2023-03-28T08:38:19.634Z,100.00
2023-03-28T08:40:59.388Z,100.00
2023-03-28T08:43:53.825Z,100.00
2023-03-28T08:46:27.228Z,100.00
2023-03-28T08:48:57.765Z,100.00
2023-03-28T08:51:28.937Z,100.00
2023-03-28T08:54:08.652Z,100.00
2023-03-28T08:56:44.556Z,100.00
2023-03-28T08:59:17.022Z,100.00
2023-03-28T09:01:46.343Z,100.00
2023-03-28T09:04:26.324Z,100.00
2023-03-28T09:07:17.886Z,100.00
2023-03-28T09:09:55.845Z,88.33
2023-03-28T09:12:47.577Z,100.00
2023-03-28T09:15:46.687Z,99.47
2023-03-28T09:18:30.878Z,100.00
2023-03-28T09:21:06.598Z,92.64
2023-03-28T09:24:08.196Z,77.61
2023-03-28T09:27:02.678Z,89.05
2023-03-28T09:29:35.336Z,80.92
2023-03-28T09:32:23.740Z,78.19
2023-03-28T09:34:53.455Z,84.05
2023-03-28T09:37:32.279Z,95.87
2023-03-28T09:40:08.971Z,94.26
2023-03-28T09:42:57.994Z,95.01
2023-03-28T09:45:54.172Z,94.28
2023-03-28T09:48:46.112Z,93.87
2023-03-28T09:51:19.430Z,78.60
2023-03-28T09:53:48.460Z,82.28
2023-03-28T09:56:26.093Z,75.38
2023-03-28T09:59:04.795Z,73.98
2023-03-28T10:01:45.302Z,69.15
2023-03-28T10:04:37.590Z,68.28
2023-03-28T10:07:43.636Z,70.50
2023-03-28T10:10:25.368Z,65.90
2023-03-28T10:13:03.026Z,62.24
2023-03-28T10:15:39.907Z,62.56
2023-03-28T10:18:28.429Z,63.09
2023-03-28T10:21:26.372Z,60.26
2023-03-28T10:24:13.293Z,63.34
2023-03-28T10:26:44.842Z,65.97
2023-03-28T10:29:15.967Z,66.25
2023-03-28T10:31:50.382Z,64.88
2023-03-28T10:34:40.668Z,66.27
2023-03-28T10:37:36.560Z,72.57
2023-03-28T10:40:29.949Z,71.89
2023-03-28T10:43:17.433Z,70.46
2023-03-28T10:45:50.965Z,65.06
2023-03-28T10:48:33.720Z,66.40
2023-03-28T10:51:15.054Z,64.93
2023-03-28T10:54:09.468Z,61.09
2023-03-28T10:56:44.713Z,59.27
2023-03-28T10:59:22.898Z,54.33
2023-03-28T11:02:06.436Z,52.07
2023-03-28T11:04:51.964Z,48.62
2023-03-28T11:07:31.113Z,52.50
2023-03-28T11:10:26.254Z,46.66
2023-03-28T11:13:18.524Z,43.63
2023-03-28T11:15:57.828Z,44.34
2023-03-28T11:18:48.308Z,43.29
2023-03-28T11:21:30.671Z,41.72
2023-03-28T11:24:10.987Z,47.27
2023-03-28T11:27:14.942Z,47.38
2023-03-28T11:30:10.050Z,47.06
2023-03-28T11:32:51.098Z,45.79
2023-03-28T11:35:29.691Z,43.01
2023-03-28T11:38:04.533Z,42.90
2023-03-28T11:40:50.848Z,47.69
2023-03-28T11:43:32.578Z,45.42
2023-03-28T11:46:07.497Z,44.89
2023-03-28T11:48:43.843Z,45.41
2023-03-28T11:51:21.544Z,47.59
2023-03-28T11:54:02.007Z,48.38
2023-03-28T11:56:44.654Z,48.49
2023-03-28T11:59:23.065Z,48.20
2023-03-28T12:01:58.858Z,50.08
2023-03-28T12:04:31.954Z,47.53
2023-03-28T12:07:12.312Z,50.58
2023-03-28T12:09:58.890Z,50.58
2023-03-28T12:12:36.588Z,51.07
2023-03-28T12:15:12.984Z,49.23
2023-03-28T12:18:06.823Z,46.99
2023-03-28T12:20:40.715Z,47.88
2023-03-28T12:23:31.886Z,48.88
2023-03-28T12:26:28.641Z,49.49
2023-03-28T12:29:03.145Z,49.31
2023-03-28T12:31:41.600Z,47.33
2023-03-28T12:34:24.928Z,45.72
2023-03-28T12:37:19.197Z,43.62
2023-03-28T12:39:55.033Z,49.22
2023-03-28T12:42:30.541Z,49.21
2023-03-28T12:45:01.863Z,49.98
2023-03-28T12:47:35.295Z,50.33
2023-03-28T12:50:08.854Z,48.76
2023-03-28T12:52:41.948Z,51.07
2023-03-28T12:55:47.329Z,48.37
2023-03-28T12:58:29.198Z,48.97
2023-03-28T13:01:03.365Z,52.34
2023-03-28T13:03:53.019Z,51.81
2023-03-28T13:06:40.515Z,52.41
2023-03-28T13:09:40.238Z,52.70
2023-03-28T13:12:19.023Z,51.50
2023-03-28T13:14:59.912Z,50.54
2023-03-28T13:17:30.816Z,50.15
2023-03-28T13:20:26.799Z,48.04
2023-03-28T13:23:00.586Z,47.86
2023-03-28T13:25:32.451Z,47.07
2023-03-28T13:28:02.386Z,45.20
2023-03-28T13:30:32.800Z,47.29
2023-03-28T13:33:04.568Z,47.61
2023-03-28T13:35:39.205Z,46.71
2023-03-28T13:38:25.549Z,49.43
2023-03-28T13:40:55.905Z,45.92
2023-03-28T13:43:37.593Z,46.56
2023-03-28T13:46:10.658Z,45.35
2023-03-28T13:48:45.904Z,45.91
2023-03-28T13:51:21.487Z,47.66
2023-03-28T13:53:50.454Z,53.13
2023-03-28T13:56:24.735Z,51.91
2023-03-28T13:58:55.422Z,52.04
2023-03-28T14:01:27.309Z,52.54
2023-03-28T14:03:56.634Z,50.05
2023-03-28T14:06:27.047Z,53.02
2023-03-28T14:08:57.782Z,53.97
2023-03-28T14:11:30.507Z,52.21
2023-03-28T14:14:09.351Z,55.01
2023-03-28T14:16:42.417Z,53.34
2023-03-28T14:19:19.626Z,53.43
2023-03-28T14:21:50.119Z,51.06
2023-03-28T14:24:23.890Z,52.19
2023-03-28T14:26:52.883Z,51.51
2023-03-28T14:29:22.842Z,49.65
2023-03-28T14:31:56.922Z,51.76
2023-03-28T14:34:30.340Z,50.07
2023-03-28T14:37:01.496Z,48.58
2023-03-28T14:39:31.672Z,48.58
2023-03-28T14:42:04.823Z,50.08
2023-03-28T14:44:38.134Z,50.03
2023-03-28T14:47:09.478Z,47.71
2023-03-28T14:49:38.694Z,47.44
2023-03-28T14:52:13.026Z,48.33
2023-03-28T14:54:47.923Z,45.76
2023-03-28T14:57:20.484Z,46.10
2023-03-28T14:59:51.622Z,46.48
2023-03-28T15:02:26.633Z,44.49
2023-03-28T15:04:57.757Z,47.58
2023-03-28T15:07:29.491Z,46.11
2023-03-28T15:10:10.818Z,42.70
2023-03-28T15:12:45.949Z,44.50
2023-03-28T15:15:22.535Z,46.14
2023-03-28T15:17:55.065Z,45.04
2023-03-28T15:20:27.897Z,43.52
2023-03-28T15:22:59.391Z,45.24
2023-03-28T15:25:29.858Z,43.44
2023-03-28T15:28:01.045Z,43.57
2023-03-28T15:30:34.339Z,45.72
2023-03-28T15:33:06.664Z,45.10
2023-03-28T15:35:39.978Z,44.00
2023-03-28T15:38:15.874Z,46.08
2023-03-28T15:40:46.445Z,44.77
2023-03-28T15:43:39.003Z,41.29
2023-03-28T15:46:12.982Z,43.86
2023-03-28T15:48:44.379Z,45.54
2023-03-28T15:51:16.641Z,44.98
2023-03-28T15:53:47.761Z,46.02
2023-03-28T15:56:23.648Z,47.11
2023-03-28T15:58:52.796Z,45.83
2023-03-28T16:01:25.421Z,46.09
2023-03-28T16:04:24.541Z,47.22
2023-03-28T16:06:56.925Z,46.65
2023-03-28T16:09:27.720Z,48.03
2023-03-28T16:12:04.409Z,44.84
2023-03-28T16:14:52.857Z,46.05
2023-03-28T16:17:25.122Z,46.48
2023-03-28T16:20:13.839Z,45.98
2023-03-28T16:22:42.028Z,47.41
2023-03-28T16:25:11.267Z,48.83
2023-03-28T16:27:39.777Z,47.15
2023-03-28T16:30:18.367Z,47.36
2023-03-28T16:32:46.657Z,47.72
2023-03-28T16:35:16.915Z,49.44
2023-03-28T16:37:45.487Z,50.88
2023-03-28T16:40:14.311Z,51.11
2023-03-28T16:42:42.757Z,51.83
2023-03-28T16:45:13.883Z,53.20
2023-03-28T16:47:43.209Z,52.82
2023-03-28T16:50:12.589Z,53.51
2023-03-28T16:52:42.995Z,52.32
2023-03-28T16:55:13.411Z,53.14
2023-03-28T16:57:42.196Z,53.58
2023-03-28T17:00:14.160Z,54.32
2023-03-28T17:02:42.819Z,55.21
2023-03-28T17:05:12.302Z,55.32
2023-03-28T17:07:42.877Z,56.70
2023-03-28T17:10:13.477Z,56.76
2023-03-28T17:12:42.525Z,58.71
2023-03-28T17:15:12.154Z,59.54
2023-03-28T17:17:40.595Z,59.68
2023-03-28T17:20:11.602Z,61.18
2023-03-28T17:22:42.629Z,61.69
2023-03-28T17:25:13.393Z,62.08
2023-03-28T17:27:41.609Z,63.80
2023-03-28T17:30:11.596Z,63.62
2023-03-28T17:32:41.712Z,64.46
2023-03-28T17:35:12.768Z,65.60
2023-03-28T17:37:41.341Z,66.29
2023-03-28T17:40:14.552Z,65.60
2023-03-28T17:42:42.812Z,66.14
2023-03-28T17:45:11.497Z,67.00
2023-03-28T17:47:40.402Z,67.14
2023-03-28T17:50:10.406Z,66.88
2023-03-28T17:52:39.761Z,67.39
2023-03-28T17:55:08.844Z,68.31
2023-03-28T17:57:40.786Z,69.10
2023-03-28T18:00:10.537Z,70.49
2023-03-28T18:02:46.199Z,72.20
2023-03-28T18:05:43.780Z,72.70
2023-03-28T18:08:12.229Z,73.35
2023-03-28T18:10:41.420Z,73.97
2023-03-28T18:13:11.356Z,76.22
2023-03-28T18:15:40.869Z,76.44
2023-03-28T18:18:09.633Z,77.03
2023-03-28T18:20:43.032Z,77.46
2023-03-28T18:23:12.187Z,76.44
2023-03-28T18:25:41.221Z,75.88
2023-03-28T18:28:10.870Z,75.21
2023-03-28T18:30:42.083Z,90.61
2023-03-28T18:33:11.668Z,88.22
2023-03-28T18:35:40.407Z,86.65
2023-03-28T18:38:10.325Z,86.90
2023-03-28T18:40:38.935Z,88.26
2023-03-28T18:43:08.097Z,83.64
2023-03-28T18:45:43.693Z,84.40
2023-03-28T18:48:13.412Z,88.50
2023-03-28T18:50:42.387Z,86.66
2023-03-28T18:53:13.382Z,85.86
2023-03-28T18:55:42.641Z,83.86
2023-03-28T18:58:11.445Z,82.71
2023-03-28T19:00:47.562Z,84.22
2023-03-28T19:03:17.680Z,92.86
2023-03-28T19:05:46.312Z,88.67
2023-03-28T19:08:14.783Z,85.58
2023-03-28T19:10:46.214Z,84.95
2023-03-28T19:13:14.700Z,84.60
2023-03-28T19:15:44.533Z,84.88
2023-03-28T19:18:14.896Z,85.39
2023-03-28T19:20:43.508Z,86.79
2023-03-28T19:23:11.869Z,91.06
2023-03-28T19:25:40.220Z,89.80
2023-03-28T19:28:09.003Z,88.25
2023-03-28T19:30:39.342Z,86.98
2023-03-28T19:33:09.799Z,89.73
2023-03-28T19:35:39.478Z,90.95
2023-03-28T19:38:10.650Z,95.32
2023-03-28T19:40:40.936Z,93.81
2023-03-28T19:43:09.141Z,94.39
2023-03-28T19:45:40.882Z,94.71
2023-03-28T19:48:11.552Z,95.47
2023-03-28T19:50:40.062Z,94.68
2023-03-28T19:53:08.670Z,100.00
2023-03-28T19:55:37.190Z,100.00
2023-03-28T19:58:07.524Z,100.00
2023-03-28T20:00:36.023Z,100.00
2023-03-28T20:03:04.447Z,100.00
2023-03-28T20:05:34.851Z,100.00
2023-03-28T20:08:03.337Z,100.00
2023-03-28T20:10:32.075Z,100.00
2023-03-28T20:13:03.840Z,100.00
2023-03-28T20:15:32.439Z,100.00
2023-03-28T20:18:01.465Z,100.00
2023-03-28T20:20:30.572Z,100.00
2023-03-28T20:23:02.075Z,100.00
2023-03-28T20:25:30.477Z,100.00
2023-03-28T20:28:02.587Z,100.00
2023-03-28T20:30:32.969Z,100.00
2023-03-28T20:33:01.732Z,100.00
2023-03-28T20:35:31.966Z,100.00
2023-03-28T20:38:03.292Z,100.00
2023-03-28T20:40:31.504Z,100.00
2023-03-28T20:43:02.052Z,100.00
2023-03-28T20:45:33.906Z,100.00
2023-03-28T20:48:06.508Z,100.00
2023-03-28T20:50:36.472Z,100.00
2023-03-28T20:53:08.982Z,100.00
2023-03-28T20:55:38.825Z,100.00
2023-03-28T20:58:08.730Z,100.00
2023-03-28T21:00:46.261Z,100.00
2023-03-28T21:03:17.013Z,100.00
2023-03-28T21:05:46.098Z,100.00
2023-03-28T21:08:19.712Z,100.00
2023-03-28T21:10:53.392Z,100.00
2023-03-28T21:13:23.105Z,100.00
2023-03-28T21:15:51.748Z,100.00
2023-03-28T21:18:20.296Z,100.00
2023-03-28T21:20:49.563Z,100.00
2023-03-28T21:23:19.204Z,100.00
2023-03-28T21:25:52.798Z,100.00
2023-03-28T21:28:21.456Z,100.00
2023-03-28T21:30:57.926Z,100.00
2023-03-28T21:33:26.858Z,100.00
2023-03-28T21:35:57.039Z,100.00
2023-03-28T21:38:28.944Z,100.00
2023-03-28T21:40:58.102Z,100.00
2023-03-28T21:43:27.200Z,100.00
2023-03-28T21:45:55.914Z,100.00
2023-03-28T21:48:26.226Z,100.00
2023-03-28T21:50:59.113Z,100.00
2023-03-28T21:53:33.503Z,100.00
2023-03-28T21:56:01.949Z,100.00
2023-03-28T21:58:33.270Z,100.00
2023-03-28T22:01:02.893Z,100.00
2023-03-28T22:03:31.475Z,100.00
2023-03-28T22:05:59.934Z,100.00
2023-03-28T22:08:29.725Z,100.00
2023-03-28T22:11:01.346Z,100.00
2023-03-28T22:13:30.067Z,100.00
2023-03-28T22:16:00.097Z,100.00
2023-03-28T22:18:30.683Z,100.00
2023-03-28T22:21:02.476Z,100.00
2023-03-28T22:23:32.916Z,100.00
2023-03-28T22:26:03.442Z,100.00
2023-03-28T22:28:31.705Z,100.00
2023-03-28T22:31:00.082Z,100.00
2023-03-28T22:33:32.020Z,100.00
2023-03-28T22:36:00.659Z,100.00
2023-03-28T22:38:29.034Z,100.00
2023-03-28T22:40:58.925Z,100.00
2023-03-28T22:43:29.114Z,100.00
2023-03-28T22:46:03.300Z,100.00
2023-03-28T22:48:31.592Z,100.00
2023-03-28T22:51:01.678Z,100.00
2023-03-28T22:53:30.548Z,100.00
2023-03-28T22:56:00.515Z,100.00
2023-03-28T22:58:28.890Z,100.00
2023-03-28T23:01:00.547Z,100.00
2023-03-28T23:03:29.599Z,100.00
2023-03-28T23:06:02.835Z,100.00
2023-03-28T23:08:31.244Z,100.00
2023-03-28T23:11:01.404Z,100.00
2023-03-28T23:13:30.497Z,100.00
2023-03-28T23:15:58.803Z,100.00
2023-03-28T23:18:27.344Z,100.00
2023-03-28T23:20:56.449Z,100.00
2023-03-28T23:23:25.860Z,100.00
2023-03-28T23:25:54.223Z,100.00
2023-03-28T23:28:23.906Z,100.00
2023-03-28T23:30:52.055Z,100.00
2023-03-28T23:33:21.289Z,100.00
2023-03-28T23:35:49.626Z,100.00
2023-03-28T23:38:18.225Z,100.00
2023-03-28T23:40:46.710Z,100.00
2023-03-28T23:43:15.131Z,100.00
2023-03-28T23:45:48.231Z,100.00
2023-03-28T23:48:16.422Z,100.00
2023-03-28T23:50:44.901Z,100.00
2023-03-28T23:53:17.259Z,100.00
2023-03-28T23:55:45.592Z,100.00
2023-03-28T23:58:13.768Z,100.00
